sensor_id;sensor_type;location;lat;lon;timestamp;temperature;humidity
19090;DHT22;9677;50.656;13.064;2022-10-17T00:01:19;17.20;61.20
19090;DHT22;9677;50.656;13.064;2022-10-17T00:03:49;17.10;61.20
19090;DHT22;9677;50.656;13.064;2022-10-17T00:06:17;17.10;61.20
19090;DHT22;9677;50.656;13.064;2022-10-17T00:08:46;17.10;61.20
19090;DHT22;9677;50.656;13.064;2022-10-17T00:11:17;17.10;61.20
19090;DHT22;9677;50.656;13.064;2022-10-17T00:13:48;17.00;61.20
19090;DHT22;9677;50.656;13.064;2022-10-17T00:16:23;17.00;61.20
19090;DHT22;9677;50.656;13.064;2022-10-17T00:18:54;17.00;61.40
19090;DHT22;9677;50.656;13.064;2022-10-17T00:21:23;17.00;61.30
19090;DHT22;9677;50.656;13.064;2022-10-17T00:23:52;16.90;61.40
19090;DHT22;9677;50.656;13.064;2022-10-17T00:26:21;16.90;61.30
19090;DHT22;9677;50.656;13.064;2022-10-17T00:28:51;16.90;61.40
19090;DHT22;9677;50.656;13.064;2022-10-17T00:31:21;16.90;61.50
19090;DHT22;9677;50.656;13.064;2022-10-17T00:33:53;16.90;61.50
19090;DHT22;9677;50.656;13.064;2022-10-17T00:36:23;16.90;62.30
19090;DHT22;9677;50.656;13.064;2022-10-17T00:38:55;16.80;61.50
19090;DHT22;9677;50.656;13.064;2022-10-17T00:41:27;16.80;61.60
19090;DHT22;9677;50.656;13.064;2022-10-17T00:43:59;16.80;62.40
19090;DHT22;9677;50.656;13.064;2022-10-17T00:46:30;16.70;61.60
19090;DHT22;9677;50.656;13.064;2022-10-17T00:49:05;16.80;61.70
19090;DHT22;9677;50.656;13.064;2022-10-17T00:51:40;16.80;61.70
19090;DHT22;9677;50.656;13.064;2022-10-17T00:54:10;16.70;61.60
19090;DHT22;9677;50.656;13.064;2022-10-17T00:56:40;16.70;61.60
19090;DHT22;9677;50.656;13.064;2022-10-17T00:59:10;16.70;61.60
19090;DHT22;9677;50.656;13.064;2022-10-17T01:01:40;16.70;61.60
19090;DHT22;9677;50.656;13.064;2022-10-17T01:04:12;16.70;61.70
19090;DHT22;9677;50.656;13.064;2022-10-17T01:06:40;16.70;61.70
19090;DHT22;9677;50.656;13.064;2022-10-17T01:09:09;16.60;61.60
19090;DHT22;9677;50.656;13.064;2022-10-17T01:11:42;16.60;61.60
19090;DHT22;9677;50.656;13.064;2022-10-17T01:14:22;16.60;61.60
19090;DHT22;9677;50.656;13.064;2022-10-17T01:17:01;16.50;61.50
19090;DHT22;9677;50.656;13.064;2022-10-17T01:19:58;16.50;61.50
19090;DHT22;9677;50.656;13.064;2022-10-17T01:22:53;16.50;61.60
19090;DHT22;9677;50.656;13.064;2022-10-17T01:25:36;16.50;61.50
19090;DHT22;9677;50.656;13.064;2022-10-17T01:28:28;16.40;61.50
19090;DHT22;9677;50.656;13.064;2022-10-17T01:31:11;16.40;61.60
19090;DHT22;9677;50.656;13.064;2022-10-17T01:33:46;16.40;61.60
19090;DHT22;9677;50.656;13.064;2022-10-17T01:36:31;16.40;61.70
19090;DHT22;9677;50.656;13.064;2022-10-17T01:39:12;16.30;62.50
19090;DHT22;9677;50.656;13.064;2022-10-17T01:41:46;16.30;61.90
19090;DHT22;9677;50.656;13.064;2022-10-17T01:44:21;16.30;61.90
19090;DHT22;9677;50.656;13.064;2022-10-17T01:47:00;16.30;62.00
19090;DHT22;9677;50.656;13.064;2022-10-17T01:49:34;16.30;62.10
19090;DHT22;9677;50.656;13.064;2022-10-17T01:52:07;16.20;62.10
19090;DHT22;9677;50.656;13.064;2022-10-17T01:54:40;16.20;62.10
19090;DHT22;9677;50.656;13.064;2022-10-17T01:57:16;16.20;62.10
19090;DHT22;9677;50.656;13.064;2022-10-17T01:59:48;16.20;62.10
19090;DHT22;9677;50.656;13.064;2022-10-17T02:02:22;16.20;62.20
19090;DHT22;9677;50.656;13.064;2022-10-17T02:04:53;16.20;62.20
19090;DHT22;9677;50.656;13.064;2022-10-17T02:07:23;16.20;62.20
19090;DHT22;9677;50.656;13.064;2022-10-17T02:09:52;16.20;62.20
19090;DHT22;9677;50.656;13.064;2022-10-17T02:12:34;16.20;62.20
19090;DHT22;9677;50.656;13.064;2022-10-17T02:18:27;16.10;62.40
19090;DHT22;9677;50.656;13.064;2022-10-17T02:21:18;16.10;62.30
19090;DHT22;9677;50.656;13.064;2022-10-17T02:23:54;16.10;62.30
19090;DHT22;9677;50.656;13.064;2022-10-17T02:26:31;16.10;62.20
19090;DHT22;9677;50.656;13.064;2022-10-17T02:29:05;16.10;62.30
19090;DHT22;9677;50.656;13.064;2022-10-17T02:31:39;16.10;62.30
19090;DHT22;9677;50.656;13.064;2022-10-17T02:34:15;16.10;62.20
19090;DHT22;9677;50.656;13.064;2022-10-17T02:36:50;16.10;62.20
19090;DHT22;9677;50.656;13.064;2022-10-17T02:39:21;16.00;62.10
19090;DHT22;9677;50.656;13.064;2022-10-17T02:41:51;16.00;62.10
19090;DHT22;9677;50.656;13.064;2022-10-17T02:44:23;16.00;62.20
19090;DHT22;9677;50.656;13.064;2022-10-17T02:47:00;16.00;62.20
19090;DHT22;9677;50.656;13.064;2022-10-17T02:49:37;16.00;62.20
19090;DHT22;9677;50.656;13.064;2022-10-17T02:52:10;15.90;62.20
19090;DHT22;9677;50.656;13.064;2022-10-17T02:54:44;15.90;62.30
19090;DHT22;9677;50.656;13.064;2022-10-17T02:57:19;15.90;62.40
19090;DHT22;9677;50.656;13.064;2022-10-17T02:59:50;15.90;62.40
19090;DHT22;9677;50.656;13.064;2022-10-17T03:02:19;15.90;62.40
19090;DHT22;9677;50.656;13.064;2022-10-17T03:04:49;15.90;62.40
19090;DHT22;9677;50.656;13.064;2022-10-17T03:07:18;15.90;62.50
19090;DHT22;9677;50.656;13.064;2022-10-17T03:09:46;15.80;62.60
19090;DHT22;9677;50.656;13.064;2022-10-17T03:12:15;15.80;62.70
19090;DHT22;9677;50.656;13.064;2022-10-17T03:14:43;15.80;62.70
19090;DHT22;9677;50.656;13.064;2022-10-17T03:17:12;15.80;62.70
19090;DHT22;9677;50.656;13.064;2022-10-17T03:19:41;15.80;62.70
19090;DHT22;9677;50.656;13.064;2022-10-17T03:22:11;15.80;62.70
19090;DHT22;9677;50.656;13.064;2022-10-17T03:24:41;15.80;62.80
19090;DHT22;9677;50.656;13.064;2022-10-17T03:27:10;15.80;62.80
19090;DHT22;9677;50.656;13.064;2022-10-17T03:29:39;15.80;62.90
19090;DHT22;9677;50.656;13.064;2022-10-17T03:32:09;15.80;62.80
19090;DHT22;9677;50.656;13.064;2022-10-17T03:34:37;15.80;62.80
19090;DHT22;9677;50.656;13.064;2022-10-17T03:37:06;15.80;62.90
19090;DHT22;9677;50.656;13.064;2022-10-17T03:39:38;15.80;62.90
19090;DHT22;9677;50.656;13.064;2022-10-17T03:42:07;15.80;62.90
19090;DHT22;9677;50.656;13.064;2022-10-17T03:44:36;15.80;62.80
19090;DHT22;9677;50.656;13.064;2022-10-17T03:47:05;15.80;62.90
19090;DHT22;9677;50.656;13.064;2022-10-17T03:49:38;15.80;62.80
19090;DHT22;9677;50.656;13.064;2022-10-17T03:52:10;15.70;62.80
19090;DHT22;9677;50.656;13.064;2022-10-17T03:54:40;15.70;62.80
19090;DHT22;9677;50.656;13.064;2022-10-17T03:57:09;15.70;62.80
19090;DHT22;9677;50.656;13.064;2022-10-17T03:59:37;15.70;62.70
19090;DHT22;9677;50.656;13.064;2022-10-17T04:02:12;15.70;62.70
19090;DHT22;9677;50.656;13.064;2022-10-17T04:04:40;15.70;62.70
19090;DHT22;9677;50.656;13.064;2022-10-17T04:07:09;15.70;62.70
19090;DHT22;9677;50.656;13.064;2022-10-17T04:09:43;15.60;62.60
19090;DHT22;9677;50.656;13.064;2022-10-17T04:12:16;15.60;62.70
19090;DHT22;9677;50.656;13.064;2022-10-17T04:14:45;15.60;62.70
19090;DHT22;9677;50.656;13.064;2022-10-17T04:17:15;15.60;62.70
19090;DHT22;9677;50.656;13.064;2022-10-17T04:19:44;15.60;63.40
19090;DHT22;9677;50.656;13.064;2022-10-17T04:22:15;15.50;62.60
19090;DHT22;9677;50.656;13.064;2022-10-17T04:24:45;15.50;62.60
19090;DHT22;9677;50.656;13.064;2022-10-17T04:27:38;15.50;62.60
19090;DHT22;9677;50.656;13.064;2022-10-17T04:30:08;15.50;62.50
19090;DHT22;9677;50.656;13.064;2022-10-17T04:32:37;15.50;62.50
19090;DHT22;9677;50.656;13.064;2022-10-17T04:35:17;15.40;62.40
19090;DHT22;9677;50.656;13.064;2022-10-17T04:37:51;15.40;62.50
19090;DHT22;9677;50.656;13.064;2022-10-17T04:40:21;15.40;62.50
19090;DHT22;9677;50.656;13.064;2022-10-17T04:42:52;15.30;62.50
19090;DHT22;9677;50.656;13.064;2022-10-17T04:45:28;15.30;62.50
19090;DHT22;9677;50.656;13.064;2022-10-17T04:48:01;15.30;62.50
19090;DHT22;9677;50.656;13.064;2022-10-17T04:50:29;15.20;62.50
19090;DHT22;9677;50.656;13.064;2022-10-17T04:53:30;15.20;62.50
19090;DHT22;9677;50.656;13.064;2022-10-17T04:56:06;15.20;62.50
19090;DHT22;9677;50.656;13.064;2022-10-17T04:58:36;15.00;62.50
19090;DHT22;9677;50.656;13.064;2022-10-17T05:01:06;15.10;62.50
19090;DHT22;9677;50.656;13.064;2022-10-17T05:03:37;15.10;62.60
19090;DHT22;9677;50.656;13.064;2022-10-17T05:06:07;15.10;62.60
19090;DHT22;9677;50.656;13.064;2022-10-17T05:08:38;15.10;62.70
19090;DHT22;9677;50.656;13.064;2022-10-17T05:11:16;15.10;62.80
19090;DHT22;9677;50.656;13.064;2022-10-17T05:13:49;15.00;62.70
19090;DHT22;9677;50.656;13.064;2022-10-17T05:16:18;15.00;62.70
19090;DHT22;9677;50.656;13.064;2022-10-17T05:18:48;15.00;62.70
19090;DHT22;9677;50.656;13.064;2022-10-17T05:21:20;15.00;62.80
19090;DHT22;9677;50.656;13.064;2022-10-17T05:23:50;15.00;62.80
19090;DHT22;9677;50.656;13.064;2022-10-17T05:26:22;15.00;62.90
19090;DHT22;9677;50.656;13.064;2022-10-17T05:28:51;14.90;62.90
19090;DHT22;9677;50.656;13.064;2022-10-17T05:31:23;14.90;62.90
19090;DHT22;9677;50.656;13.064;2022-10-17T05:33:52;14.90;62.90
19090;DHT22;9677;50.656;13.064;2022-10-17T05:36:21;14.90;62.90
19090;DHT22;9677;50.656;13.064;2022-10-17T05:38:53;14.90;62.90
19090;DHT22;9677;50.656;13.064;2022-10-17T05:41:23;14.90;62.90
19090;DHT22;9677;50.656;13.064;2022-10-17T05:43:53;14.90;63.00
19090;DHT22;9677;50.656;13.064;2022-10-17T05:46:34;14.90;63.00
19090;DHT22;9677;50.656;13.064;2022-10-17T05:49:02;14.90;63.00
19090;DHT22;9677;50.656;13.064;2022-10-17T05:51:46;14.80;63.00
19090;DHT22;9677;50.656;13.064;2022-10-17T05:54:14;14.80;63.00
19090;DHT22;9677;50.656;13.064;2022-10-17T05:56:50;14.80;63.00
19090;DHT22;9677;50.656;13.064;2022-10-17T05:59:21;14.80;63.20
19090;DHT22;9677;50.656;13.064;2022-10-17T06:02:05;14.80;63.20
19090;DHT22;9677;50.656;13.064;2022-10-17T06:04:34;14.80;63.20
19090;DHT22;9677;50.656;13.064;2022-10-17T06:07:04;14.80;63.20
19090;DHT22;9677;50.656;13.064;2022-10-17T06:09:34;14.80;63.30
19090;DHT22;9677;50.656;13.064;2022-10-17T06:12:04;14.70;63.30
19090;DHT22;9677;50.656;13.064;2022-10-17T06:14:34;14.70;63.40
19090;DHT22;9677;50.656;13.064;2022-10-17T06:17:04;14.70;63.40
19090;DHT22;9677;50.656;13.064;2022-10-17T06:19:38;14.80;63.50
19090;DHT22;9677;50.656;13.064;2022-10-17T06:22:07;14.80;63.60
19090;DHT22;9677;50.656;13.064;2022-10-17T06:24:36;14.80;63.60
19090;DHT22;9677;50.656;13.064;2022-10-17T06:27:06;14.80;63.60
19090;DHT22;9677;50.656;13.064;2022-10-17T06:29:39;14.80;63.70
19090;DHT22;9677;50.656;13.064;2022-10-17T06:32:08;14.80;63.70
19090;DHT22;9677;50.656;13.064;2022-10-17T06:34:44;14.80;63.70
19090;DHT22;9677;50.656;13.064;2022-10-17T06:37:13;14.80;63.70
19090;DHT22;9677;50.656;13.064;2022-10-17T06:39:44;14.80;63.70
19090;DHT22;9677;50.656;13.064;2022-10-17T06:42:18;14.80;63.70
19090;DHT22;9677;50.656;13.064;2022-10-17T06:45:06;14.90;63.70
19090;DHT22;9677;50.656;13.064;2022-10-17T06:47:40;14.90;63.80
19090;DHT22;9677;50.656;13.064;2022-10-17T06:50:32;14.80;63.80
19090;DHT22;9677;50.656;13.064;2022-10-17T06:53:14;14.90;63.90
19090;DHT22;9677;50.656;13.064;2022-10-17T06:55:51;14.90;64.00
19090;DHT22;9677;50.656;13.064;2022-10-17T06:58:41;14.90;64.00
19090;DHT22;9677;50.656;13.064;2022-10-17T07:01:22;14.90;64.10
19090;DHT22;9677;50.656;13.064;2022-10-17T07:03:55;15.00;64.10
19090;DHT22;9677;50.656;13.064;2022-10-17T07:06:25;14.90;64.00
19090;DHT22;9677;50.656;13.064;2022-10-17T07:08:55;15.00;64.20
19090;DHT22;9677;50.656;13.064;2022-10-17T07:11:24;15.00;64.20
19090;DHT22;9677;50.656;13.064;2022-10-17T07:13:54;15.00;64.40
19090;DHT22;9677;50.656;13.064;2022-10-17T07:16:23;15.10;64.60
19090;DHT22;9677;50.656;13.064;2022-10-17T07:19:00;15.10;64.70
19090;DHT22;9677;50.656;13.064;2022-10-17T07:21:34;15.10;64.70
19090;DHT22;9677;50.656;13.064;2022-10-17T07:24:06;15.20;64.70
19090;DHT22;9677;50.656;13.064;2022-10-17T07:26:35;15.20;64.70
19090;DHT22;9677;50.656;13.064;2022-10-17T07:29:05;15.30;64.80
19090;DHT22;9677;50.656;13.064;2022-10-17T07:31:38;15.30;64.90
19090;DHT22;9677;50.656;13.064;2022-10-17T07:34:07;15.30;64.80
19090;DHT22;9677;50.656;13.064;2022-10-17T07:36:36;15.40;64.90
19090;DHT22;9677;50.656;13.064;2022-10-17T07:39:06;15.40;65.00
19090;DHT22;9677;50.656;13.064;2022-10-17T07:41:36;15.50;65.10
19090;DHT22;9677;50.656;13.064;2022-10-17T07:44:06;15.50;65.10
19090;DHT22;9677;50.656;13.064;2022-10-17T07:46:41;15.60;65.20
19090;DHT22;9677;50.656;13.064;2022-10-17T07:49:10;15.60;65.20
19090;DHT22;9677;50.656;13.064;2022-10-17T07:51:40;15.60;65.30
19090;DHT22;9677;50.656;13.064;2022-10-17T07:54:09;15.70;65.40
19090;DHT22;9677;50.656;13.064;2022-10-17T07:56:37;15.80;65.60
19090;DHT22;9677;50.656;13.064;2022-10-17T07:59:07;15.80;66.40
19090;DHT22;9677;50.656;13.064;2022-10-17T08:01:36;15.90;65.80
19090;DHT22;9677;50.656;13.064;2022-10-17T08:04:04;15.90;65.80
19090;DHT22;9677;50.656;13.064;2022-10-17T08:06:33;16.00;66.00
19090;DHT22;9677;50.656;13.064;2022-10-17T08:09:02;16.10;66.10
19090;DHT22;9677;50.656;13.064;2022-10-17T08:11:30;16.20;66.10
19090;DHT22;9677;50.656;13.064;2022-10-17T08:13:59;16.20;66.10
19090;DHT22;9677;50.656;13.064;2022-10-17T08:16:29;16.40;66.20
19090;DHT22;9677;50.656;13.064;2022-10-17T08:18:57;16.40;66.30
19090;DHT22;9677;50.656;13.064;2022-10-17T08:21:26;16.50;66.30
19090;DHT22;9677;50.656;13.064;2022-10-17T08:23:55;16.60;66.30
19090;DHT22;9677;50.656;13.064;2022-10-17T08:26:24;16.60;66.40
19090;DHT22;9677;50.656;13.064;2022-10-17T08:28:52;16.70;66.40
19090;DHT22;9677;50.656;13.064;2022-10-17T08:31:21;16.80;66.50
19090;DHT22;9677;50.656;13.064;2022-10-17T08:33:51;17.00;66.60
19090;DHT22;9677;50.656;13.064;2022-10-17T08:36:20;17.00;66.60
19090;DHT22;9677;50.656;13.064;2022-10-17T08:38:48;17.20;66.70
19090;DHT22;9677;50.656;13.064;2022-10-17T08:41:43;17.20;66.60
19090;DHT22;9677;50.656;13.064;2022-10-17T08:44:24;17.30;67.10
19090;DHT22;9677;50.656;13.064;2022-10-17T08:47:04;17.50;66.80
19090;DHT22;9677;50.656;13.064;2022-10-17T08:49:42;17.60;66.80
19090;DHT22;9677;50.656;13.064;2022-10-17T08:52:19;17.70;66.90
19090;DHT22;9677;50.656;13.064;2022-10-17T08:54:51;17.90;66.80
19090;DHT22;9677;50.656;13.064;2022-10-17T08:57:19;18.00;66.60
19090;DHT22;9677;50.656;13.064;2022-10-17T08:59:50;18.10;66.50
19090;DHT22;9677;50.656;13.064;2022-10-17T09:02:40;18.20;66.50
19090;DHT22;9677;50.656;13.064;2022-10-17T09:05:34;18.30;66.60
19090;DHT22;9677;50.656;13.064;2022-10-17T09:08:19;18.40;66.40
19090;DHT22;9677;50.656;13.064;2022-10-17T09:10:57;18.50;66.30
19090;DHT22;9677;50.656;13.064;2022-10-17T09:13:36;18.60;66.10
19090;DHT22;9677;50.656;13.064;2022-10-17T09:16:35;18.80;66.10
19090;DHT22;9677;50.656;13.064;2022-10-17T09:19:18;18.90;66.00
19090;DHT22;9677;50.656;13.064;2022-10-17T09:21:52;19.00;65.80
19090;DHT22;9677;50.656;13.064;2022-10-17T09:24:29;19.10;65.60
19090;DHT22;9677;50.656;13.064;2022-10-17T09:27:14;19.20;65.60
19090;DHT22;9677;50.656;13.064;2022-10-17T09:29:49;19.30;65.60
19090;DHT22;9677;50.656;13.064;2022-10-17T09:32:23;19.40;65.40
19090;DHT22;9677;50.656;13.064;2022-10-17T09:34:53;19.50;65.30
19090;DHT22;9677;50.656;13.064;2022-10-17T09:37:28;19.60;65.20
19090;DHT22;9677;50.656;13.064;2022-10-17T09:39:58;19.70;65.00
19090;DHT22;9677;50.656;13.064;2022-10-17T09:42:27;19.80;64.90
19090;DHT22;9677;50.656;13.064;2022-10-17T09:45:10;19.90;64.90
19090;DHT22;9677;50.656;13.064;2022-10-17T09:47:48;20.00;64.80
19090;DHT22;9677;50.656;13.064;2022-10-17T09:50:26;20.10;64.60
19090;DHT22;9677;50.656;13.064;2022-10-17T09:53:00;20.20;65.30
19090;DHT22;9677;50.656;13.064;2022-10-17T09:55:39;20.30;64.40
19090;DHT22;9677;50.656;13.064;2022-10-17T09:58:10;20.40;64.40
19090;DHT22;9677;50.656;13.064;2022-10-17T10:00:40;20.50;64.20
19090;DHT22;9677;50.656;13.064;2022-10-17T10:03:17;20.60;64.10
19090;DHT22;9677;50.656;13.064;2022-10-17T10:06:01;20.70;64.10
19090;DHT22;9677;50.656;13.064;2022-10-17T10:08:34;20.90;63.90
19090;DHT22;9677;50.656;13.064;2022-10-17T10:11:06;21.00;64.00
19090;DHT22;9677;50.656;13.064;2022-10-17T10:13:40;21.10;63.90
19090;DHT22;9677;50.656;13.064;2022-10-17T10:16:16;21.20;64.60
19090;DHT22;9677;50.656;13.064;2022-10-17T10:18:48;21.40;63.70
19090;DHT22;9677;50.656;13.064;2022-10-17T10:21:19;21.50;63.70
19090;DHT22;9677;50.656;13.064;2022-10-17T10:24:12;21.60;63.50
19090;DHT22;9677;50.656;13.064;2022-10-17T10:26:43;21.80;62.90
19090;DHT22;9677;50.656;13.064;2022-10-17T10:29:26;22.00;63.10
19090;DHT22;9677;50.656;13.064;2022-10-17T10:32:07;22.20;62.50
19090;DHT22;9677;50.656;13.064;2022-10-17T10:34:42;22.30;62.20
19090;DHT22;9677;50.656;13.064;2022-10-17T10:37:18;22.50;62.40
19090;DHT22;9677;50.656;13.064;2022-10-17T10:39:52;22.70;62.10
19090;DHT22;9677;50.656;13.064;2022-10-17T10:42:27;22.90;61.80
19090;DHT22;9677;50.656;13.064;2022-10-17T10:45:00;23.10;61.40
19090;DHT22;9677;50.656;13.064;2022-10-17T10:47:31;23.30;61.40
19090;DHT22;9677;50.656;13.064;2022-10-17T10:50:16;23.50;61.30
19090;DHT22;9677;50.656;13.064;2022-10-17T10:52:57;23.70;60.40
19090;DHT22;9677;50.656;13.064;2022-10-17T10:55:43;23.80;60.40
19090;DHT22;9677;50.656;13.064;2022-10-17T10:58:24;24.10;60.10
19090;DHT22;9677;50.656;13.064;2022-10-17T11:01:01;24.20;59.70
19090;DHT22;9677;50.656;13.064;2022-10-17T11:03:34;24.40;59.80
19090;DHT22;9677;50.656;13.064;2022-10-17T11:06:12;24.60;59.50
19090;DHT22;9677;50.656;13.064;2022-10-17T11:08:47;24.80;59.00
19090;DHT22;9677;50.656;13.064;2022-10-17T11:11:27;24.90;58.80
19090;DHT22;9677;50.656;13.064;2022-10-17T11:14:00;25.10;58.40
19090;DHT22;9677;50.656;13.064;2022-10-17T11:16:38;25.20;58.50
19090;DHT22;9677;50.656;13.064;2022-10-17T11:19:13;25.40;58.30
19090;DHT22;9677;50.656;13.064;2022-10-17T11:21:47;25.50;58.10
19090;DHT22;9677;50.656;13.064;2022-10-17T11:24:30;25.70;58.10
19090;DHT22;9677;50.656;13.064;2022-10-17T11:27:04;25.80;57.60
19090;DHT22;9677;50.656;13.064;2022-10-17T11:29:36;26.00;57.50
19090;DHT22;9677;50.656;13.064;2022-10-17T11:32:11;26.10;57.30
19090;DHT22;9677;50.656;13.064;2022-10-17T11:34:45;26.20;57.10
19090;DHT22;9677;50.656;13.064;2022-10-17T11:37:18;26.30;56.90
19090;DHT22;9677;50.656;13.064;2022-10-17T11:39:53;26.40;56.70
19090;DHT22;9677;50.656;13.064;2022-10-17T11:42:27;26.60;56.60
19090;DHT22;9677;50.656;13.064;2022-10-17T11:45:02;26.60;56.20
19090;DHT22;9677;50.656;13.064;2022-10-17T11:47:38;26.70;56.10
19090;DHT22;9677;50.656;13.064;2022-10-17T11:50:24;26.80;55.60
19090;DHT22;9677;50.656;13.064;2022-10-17T11:53:16;26.90;55.00
19090;DHT22;9677;50.656;13.064;2022-10-17T11:55:47;27.00;55.50
19090;DHT22;9677;50.656;13.064;2022-10-17T11:58:34;27.10;55.40
19090;DHT22;9677;50.656;13.064;2022-10-17T12:01:14;27.10;54.30
19090;DHT22;9677;50.656;13.064;2022-10-17T12:04:11;27.20;54.40
19090;DHT22;9677;50.656;13.064;2022-10-17T12:06:54;27.20;54.10
19090;DHT22;9677;50.656;13.064;2022-10-17T12:09:39;27.30;54.30
19090;DHT22;9677;50.656;13.064;2022-10-17T12:12:23;27.40;54.10
19090;DHT22;9677;50.656;13.064;2022-10-17T12:18:15;27.40;53.50
19090;DHT22;9677;50.656;13.064;2022-10-17T12:20:54;27.40;53.70
19090;DHT22;9677;50.656;13.064;2022-10-17T12:23:26;27.50;53.00
19090;DHT22;9677;50.656;13.064;2022-10-17T12:25:57;27.50;53.60
19090;DHT22;9677;50.656;13.064;2022-10-17T12:28:32;27.50;53.60
19090;DHT22;9677;50.656;13.064;2022-10-17T12:31:05;27.50;53.60
19090;DHT22;9677;50.656;13.064;2022-10-17T12:33:37;27.50;53.00
19090;DHT22;9677;50.656;13.064;2022-10-17T12:36:43;27.50;53.00
19090;DHT22;9677;50.656;13.064;2022-10-17T12:45:48;27.50;52.20
19090;DHT22;9677;50.656;13.064;2022-10-17T12:48:59;27.50;51.90
19090;DHT22;9677;50.656;13.064;2022-10-17T12:52:12;27.40;51.80
19090;DHT22;9677;50.656;13.064;2022-10-17T12:54:50;27.40;51.40
19090;DHT22;9677;50.656;13.064;2022-10-17T12:57:43;27.40;52.20
19090;DHT22;9677;50.656;13.064;2022-10-17T13:00:23;27.40;52.10
19090;DHT22;9677;50.656;13.064;2022-10-17T13:03:02;27.30;51.80
19090;DHT22;9677;50.656;13.064;2022-10-17T13:05:37;27.30;51.60
19090;DHT22;9677;50.656;13.064;2022-10-17T13:08:15;27.30;51.70
19090;DHT22;9677;50.656;13.064;2022-10-17T13:10:49;27.30;51.20
19090;DHT22;9677;50.656;13.064;2022-10-17T13:13:20;27.30;51.60
19090;DHT22;9677;50.656;13.064;2022-10-17T13:15:52;27.30;51.70
19090;DHT22;9677;50.656;13.064;2022-10-17T13:18:23;27.20;51.60
19090;DHT22;9677;50.656;13.064;2022-10-17T13:20:59;27.20;51.50
19090;DHT22;9677;50.656;13.064;2022-10-17T13:23:31;27.20;50.70
19090;DHT22;9677;50.656;13.064;2022-10-17T13:26:03;27.10;51.20
19090;DHT22;9677;50.656;13.064;2022-10-17T13:28:33;27.10;51.10
19090;DHT22;9677;50.656;13.064;2022-10-17T13:31:05;27.10;51.00
19090;DHT22;9677;50.656;13.064;2022-10-17T13:33:36;27.00;50.70
19090;DHT22;9677;50.656;13.064;2022-10-17T13:36:13;27.00;50.60
19090;DHT22;9677;50.656;13.064;2022-10-17T13:38:44;26.90;50.30
19090;DHT22;9677;50.656;13.064;2022-10-17T13:41:15;26.90;50.80
19090;DHT22;9677;50.656;13.064;2022-10-17T13:44:09;26.80;50.70
19090;DHT22;9677;50.656;13.064;2022-10-17T13:46:40;26.80;50.60
19090;DHT22;9677;50.656;13.064;2022-10-17T13:49:16;26.70;50.70
19090;DHT22;9677;50.656;13.064;2022-10-17T13:51:53;26.70;50.30
19090;DHT22;9677;50.656;13.064;2022-10-17T13:54:35;26.60;50.30
19090;DHT22;9677;50.656;13.064;2022-10-17T13:57:17;26.60;49.80
19090;DHT22;9677;50.656;13.064;2022-10-17T13:59:49;26.50;49.70
19090;DHT22;9677;50.656;13.064;2022-10-17T14:02:20;26.40;50.40
19090;DHT22;9677;50.656;13.064;2022-10-17T14:04:59;26.30;50.40
19090;DHT22;9677;50.656;13.064;2022-10-17T14:07:50;26.20;49.90
19090;DHT22;9677;50.656;13.064;2022-10-17T14:10:42;26.10;50.30
19090;DHT22;9677;50.656;13.064;2022-10-17T14:13:19;26.10;50.60
19090;DHT22;9677;50.656;13.064;2022-10-17T14:15:49;26.00;50.20
19090;DHT22;9677;50.656;13.064;2022-10-17T14:18:21;26.00;50.70
19090;DHT22;9677;50.656;13.064;2022-10-17T14:20:51;25.90;50.60
19090;DHT22;9677;50.656;13.064;2022-10-17T14:23:42;25.80;50.70
19090;DHT22;9677;50.656;13.064;2022-10-17T14:26:14;25.80;50.70
19090;DHT22;9677;50.656;13.064;2022-10-17T14:28:45;25.70;50.80
19090;DHT22;9677;50.656;13.064;2022-10-17T14:31:28;25.70;50.90
19090;DHT22;9677;50.656;13.064;2022-10-17T14:33:59;25.60;50.10
19090;DHT22;9677;50.656;13.064;2022-10-17T14:36:32;25.60;50.90
19090;DHT22;9677;50.656;13.064;2022-10-17T14:39:06;25.60;50.90
19090;DHT22;9677;50.656;13.064;2022-10-17T14:41:43;25.50;50.70
19090;DHT22;9677;50.656;13.064;2022-10-17T14:44:18;25.50;51.00
19090;DHT22;9677;50.656;13.064;2022-10-17T14:46:52;25.50;51.00
19090;DHT22;9677;50.656;13.064;2022-10-17T14:49:27;25.40;51.00
19090;DHT22;9677;50.656;13.064;2022-10-17T14:52:28;25.40;50.90
19090;DHT22;9677;50.656;13.064;2022-10-17T14:55:16;25.30;50.50
19090;DHT22;9677;50.656;13.064;2022-10-17T14:57:49;25.30;50.60
19090;DHT22;9677;50.656;13.064;2022-10-17T15:00:20;25.30;51.20
19090;DHT22;9677;50.656;13.064;2022-10-17T15:02:51;25.20;51.10
19090;DHT22;9677;50.656;13.064;2022-10-17T15:05:21;25.10;51.10
19090;DHT22;9677;50.656;13.064;2022-10-17T15:07:51;25.10;51.20
19090;DHT22;9677;50.656;13.064;2022-10-17T15:10:31;25.00;51.30
19090;DHT22;9677;50.656;13.064;2022-10-17T15:13:02;24.90;50.90
19090;DHT22;9677;50.656;13.064;2022-10-17T15:15:51;24.90;51.30
19090;DHT22;9677;50.656;13.064;2022-10-17T15:18:19;24.80;51.20
19090;DHT22;9677;50.656;13.064;2022-10-17T15:20:48;24.80;51.30
19090;DHT22;9677;50.656;13.064;2022-10-17T15:23:31;24.70;51.20
19090;DHT22;9677;50.656;13.064;2022-10-17T15:26:01;24.60;51.30
19090;DHT22;9677;50.656;13.064;2022-10-17T15:28:29;24.50;51.30
19090;DHT22;9677;50.656;13.064;2022-10-17T15:30:58;24.50;51.50
19090;DHT22;9677;50.656;13.064;2022-10-17T15:33:26;24.40;51.50
19090;DHT22;9677;50.656;13.064;2022-10-17T15:35:55;24.40;51.50
19090;DHT22;9677;50.656;13.064;2022-10-17T15:38:28;24.30;51.50
19090;DHT22;9677;50.656;13.064;2022-10-17T15:40:57;24.20;51.60
19090;DHT22;9677;50.656;13.064;2022-10-17T15:43:27;24.20;52.20
19090;DHT22;9677;50.656;13.064;2022-10-17T15:45:55;24.10;51.60
19090;DHT22;9677;50.656;13.064;2022-10-17T15:48:28;24.00;51.70
19090;DHT22;9677;50.656;13.064;2022-10-17T15:50:59;23.90;51.70
19090;DHT22;9677;50.656;13.064;2022-10-17T15:53:27;23.90;51.80
19090;DHT22;9677;50.656;13.064;2022-10-17T15:55:57;23.80;51.80
19090;DHT22;9677;50.656;13.064;2022-10-17T15:58:33;23.70;51.80
19090;DHT22;9677;50.656;13.064;2022-10-17T16:01:04;23.70;51.90
19090;DHT22;9677;50.656;13.064;2022-10-17T16:03:33;23.60;52.00
19090;DHT22;9677;50.656;13.064;2022-10-17T16:06:04;23.50;52.10
19090;DHT22;9677;50.656;13.064;2022-10-17T16:08:39;23.40;52.10
19090;DHT22;9677;50.656;13.064;2022-10-17T16:11:15;23.40;52.20
19090;DHT22;9677;50.656;13.064;2022-10-17T16:13:50;23.30;52.20
19090;DHT22;9677;50.656;13.064;2022-10-17T16:16:21;23.20;52.20
19090;DHT22;9677;50.656;13.064;2022-10-17T16:18:50;23.10;52.90
19090;DHT22;9677;50.656;13.064;2022-10-17T16:21:20;23.10;52.40
19090;DHT22;9677;50.656;13.064;2022-10-17T16:23:52;23.00;52.50
19090;DHT22;9677;50.656;13.064;2022-10-17T16:26:21;22.90;53.10
19090;DHT22;9677;50.656;13.064;2022-10-17T16:28:50;22.80;52.50